Wetterdaten: Woche 19.02.18 - 25.02.18 (KW8)
Datum Zeit Temp. A. Feuchte A. Luftdruck Regen Wind Richtung Taupunkt Windchill Windben
19.02.2018 00:00 -1,1 C 74 % 1026,8 hPa 0,0 l/m 0,0 km/h N -5,1 C -1,1 C 0,0 km/h
19.02.2018 01:00 -2,4 C 80 % 1026,5 hPa 0,0 l/m 0,0 km/h N -5,4 C -2,4 C 0,4 km/h
19.02.2018 02:00 -3,2 C 82 % 1026,2 hPa 0,0 l/m 0,0 km/h N -5,9 C -3,2 C 0,0 km/h
19.02.2018 03:00 -4,1 C 83 % 1025,7 hPa 0,0 l/m 0,0 km/h N -6,6 C -4,1 C 0,0 km/h
19.02.2018 04:00 -4,4 C 83 % 1025,3 hPa 0,0 l/m 0,0 km/h N -6,8 C -4,4 C 0,4 km/h
19.02.2018 05:00 -4,7 C 84 % 1025,2 hPa 0,0 l/m 0,0 km/h N -7,0 C -4,7 C 0,0 km/h
19.02.2018 06:00 -5,3 C 84 % 1024,8 hPa 0,0 l/m 0,0 km/h N -7,6 C -5,3 C 0,0 km/h
19.02.2018 07:00 -5,6 C 84 % 1024,8 hPa 0,0 l/m 0,0 km/h N -7,9 C -5,6 C 0,0 km/h
19.02.2018 08:00 -5,1 C 84 % 1024,6 hPa 0,0 l/m 0,0 km/h N -7,3 C -5,1 C 0,4 km/h
19.02.2018 09:00 -3,0 C 84 % 1024,0 hPa 0,0 l/m 0,2 km/h N -5,3 C -3,0 C 3,2 km/h
19.02.2018 10:00 -0,8 C 84 % 1023,4 hPa 0,0 l/m 0,0 km/h N -3,2 C -0,8 C 1,6 km/h
19.02.2018 11:00 1,5 C 82 % 1022,8 hPa 0,0 l/m 0,3 km/h N -1,2 C 1,5 C 5,6 km/h
19.02.2018 12:00 3,8 C 70 % 1022,0 hPa 0,0 l/m 1,3 km/h N -1,1 C 3,8 C 11,3 km/h
19.02.2018 13:00 4,1 C 65 % 1021,4 hPa 0,0 l/m 1,4 km/h N -1,9 C 4,1 C 7,6 km/h
19.02.2018 14:00 4,4 C 64 % 1020,9 hPa 0,0 l/m 0,9 km/h N -1,7 C 4,4 C 6,8 km/h
19.02.2018 15:00 3,3 C 67 % 1020,5 hPa 0,0 l/m 0,4 km/h N -2,3 C 3,3 C 7,6 km/h
19.02.2018 16:00 2,0 C 72 % 1020,2 hPa 0,0 l/m 0,4 km/h N -2,6 C 2,0 C 5,2 km/h
19.02.2018 17:00 1,4 C 74 % 1020,1 hPa 0,0 l/m 0,2 km/h N -2,7 C 1,4 C 4,4 km/h
19.02.2018 18:00 0,5 C 77 % 1020,0 hPa 0,0 l/m 0,0 km/h N -3,2 C 0,5 C 1,2 km/h
19.02.2018 19:00 -0,4 C 80 % 1019,9 hPa 0,0 l/m 0,0 km/h N -3,5 C -0,4 C 0,8 km/h
19.02.2018 20:00 -0,9 C 81 % 1019,7 hPa 0,0 l/m 0,0 km/h N -3,7 C -0,9 C 1,2 km/h
19.02.2018 21:00 -1,4 C 81 % 1019,2 hPa 0,0 l/m 0,0 km/h N -4,1 C -1,4 C 0,0 km/h
19.02.2018 22:00 -1,4 C 82 % 1018,8 hPa 0,0 l/m 0,0 km/h N -4,0 C -1,4 C 1,6 km/h
19.02.2018 23:00 -1,2 C 83 % 1018,3 hPa 0,0 l/m 0,0 km/h N -3,7 C -1,2 C 0,4 km/h
20.02.2018 00:00 -0,9 C 82 % 1018,0 hPa 0,0 l/m 0,1 km/h N -3,6 C -0,9 C 3,2 km/h
20.02.2018 01:00 -0,7 C 82 % 1017,5 hPa 0,0 l/m 0,1 km/h N -3,4 C -0,7 C 2,8 km/h
20.02.2018 02:00 -0,8 C 83 % 1017,0 hPa 0,0 l/m 0,0 km/h N -3,4 C -0,8 C 0,4 km/h
20.02.2018 03:00 -1,0 C 83 % 1016,7 hPa 0,0 l/m 0,0 km/h N -3,5 C -1,0 C 0,0 km/h
20.02.2018 04:00 -1,3 C 84 % 1016,5 hPa 0,0 l/m 0,0 km/h N -3,7 C -1,3 C 0,0 km/h
20.02.2018 05:00 -1,4 C 84 % 1016,5 hPa 0,0 l/m 0,0 km/h N -3,7 C -1,4 C 0,0 km/h
20.02.2018 06:00 -1,4 C 84 % 1016,3 hPa 0,0 l/m 0,0 km/h N -3,7 C -1,4 C 0,4 km/h
20.02.2018 07:00 -1,3 C 84 % 1016,4 hPa 0,0 l/m 0,0 km/h N -3,7 C -1,3 C 0,0 km/h
20.02.2018 08:00 -1,0 C 84 % 1016,3 hPa 0,0 l/m 0,1 km/h N -3,3 C -1,0 C 1,6 km/h
20.02.2018 09:00 -0,5 C 84 % 1016,2 hPa 0,0 l/m 0,0 km/h N -2,9 C -0,5 C 0,0 km/h
20.02.2018 10:00 0,2 C 84 % 1015,9 hPa 0,0 l/m 0,0 km/h N -2,2 C 0,2 C 0,0 km/h
20.02.2018 11:00 0,3 C 84 % 1015,9 hPa 0,0 l/m 0,7 km/h N -2,1 C 0,3 C 7,2 km/h
20.02.2018 12:00 0,5 C 84 % 1015,5 hPa 0,0 l/m 0,6 km/h N -1,8 C 0,5 C 6,8 km/h
20.02.2018 13:00 0,4 C 84 % 1015,0 hPa 1,0 l/m 0,3 km/h N -2,0 C 0,4 C 5,6 km/h
20.02.2018 14:00 0,4 C 84 % 1014,7 hPa 0,5 l/m 0,3 km/h N -2,0 C 0,4 C 6,0 km/h
20.02.2018 15:00 0,2 C 84 % 1014,4 hPa 0,0 l/m 0,8 km/h N -2,2 C 0,2 C 6,8 km/h
20.02.2018 16:00 0,2 C 84 % 1014,4 hPa 0,5 l/m 0,3 km/h N -2,2 C 0,2 C 6,4 km/h
20.02.2018 17:00 -0,0 C 84 % 1014,8 hPa 0,0 l/m 0,4 km/h N -2,4 C -0,0 C 4,8 km/h
20.02.2018 18:00 -0,3 C 84 % 1015,0 hPa 0,0 l/m 1,2 km/h N -2,6 C -0,3 C 5,6 km/h
20.02.2018 19:00 -0,6 C 84 % 1015,2 hPa 0,0 l/m 2,3 km/h N -2,9 C -0,6 C 6,8 km/h
20.02.2018 20:00 -0,7 C 84 % 1015,5 hPa 0,3 l/m 2,4 km/h N -3,0 C -0,7 C 7,2 km/h
20.02.2018 21:00 -1,0 C 84 % 1015,6 hPa 0,0 l/m 2,2 km/h N -3,4 C -1,0 C 7,2 km/h
20.02.2018 22:00 -1,1 C 84 % 1015,8 hPa 0,0 l/m 1,5 km/h N -3,4 C -1,1 C 6,4 km/h
20.02.2018 23:00 -1,1 C 84 % 1015,8 hPa 0,0 l/m 1,7 km/h N -3,4 C -1,1 C 6,4 km/h
21.02.2018 00:00 -1,0 C 84 % 1016,0 hPa 0,0 l/m 1,5 km/h N -3,4 C -1,0 C 6,0 km/h
21.02.2018 01:00 -1,1 C 84 % 1016,2 hPa 0,0 l/m 0,3 km/h N -3,4 C -1,1 C 3,6 km/h
21.02.2018 02:00 -1,0 C 84 % 1016,2 hPa 0,0 l/m 1,7 km/h N -3,4 C -1,0 C 6,8 km/h
21.02.2018 03:00 -1,0 C 84 % 1016,3 hPa 0,0 l/m 2,7 km/h N -3,4 C -1,0 C 8,4 km/h
21.02.2018 04:00 -1,3 C 84 % 1016,5 hPa 0,0 l/m 2,5 km/h N -3,6 C -1,3 C 7,2 km/h
21.02.2018 05:00 -1,5 C 84 % 1016,7 hPa 0,0 l/m 2,8 km/h N -3,9 C -1,5 C 8,9 km/h
21.02.2018 06:00 -1,8 C 84 % 1017,1 hPa 0,0 l/m 3,8 km/h N -4,1 C -1,8 C 13,7 km/h
21.02.2018 07:00 -1,8 C 84 % 1017,7 hPa 0,0 l/m 4,5 km/h N -4,1 C -1,8 C 12,1 km/h
21.02.2018 08:00 -1,7 C 84 % 1018,1 hPa 0,0 l/m 5,0 km/h N -4,0 C -1,7 C 13,7 km/h
21.02.2018 09:00 -1,5 C 84 % 1018,5 hPa 0,0 l/m 4,4 km/h N -3,8 C -1,5 C 12,9 km/h
21.02.2018 10:00 -0,9 C 84 % 1018,6 hPa 0,0 l/m 4,5 km/h N -3,2 C -0,9 C 13,7 km/h
21.02.2018 11:00 -0,4 C 83 % 1018,4 hPa 0,3 l/m 6,7 km/h N -2,9 C -0,8 C 16,5 km/h
21.02.2018 12:00 -0,3 C 81 % 1018,3 hPa 0,0 l/m 6,3 km/h N -3,2 C -0,5 C 16,1 km/h
21.02.2018 13:00 -0,4 C 79 % 1018,4 hPa 0,0 l/m 6,2 km/h N -3,6 C -0,7 C 17,3 km/h
21.02.2018 14:00 -0,3 C 77 % 1018,3 hPa 0,0 l/m 6,1 km/h N -3,8 C -0,4 C 16,1 km/h
21.02.2018 15:00 -0,3 C 77 % 1018,4 hPa 0,0 l/m 4,3 km/h N -3,9 C -0,3 C 12,5 km/h
21.02.2018 16:00 -0,4 C 78 % 1018,3 hPa 0,0 l/m 4,4 km/h N -3,8 C -0,4 C 12,9 km/h
21.02.2018 17:00 -0,7 C 81 % 1018,5 hPa 0,0 l/m 3,5 km/h N -3,6 C -0,7 C 11,7 km/h
21.02.2018 18:00 -0,9 C 82 % 1019,3 hPa 0,0 l/m 4,9 km/h N -3,6 C -1,2 C 14,9 km/h
21.02.2018 19:00 -1,3 C 82 % 1019,6 hPa 0,0 l/m 3,8 km/h N -4,0 C -1,3 C 12,1 km/h
21.02.2018 20:00 -1,4 C 83 % 1019,7 hPa 0,0 l/m 4,6 km/h N -3,9 C -1,4 C 14,1 km/h
21.02.2018 21:00 -1,7 C 83 % 1019,8 hPa 0,0 l/m 4,9 km/h N -4,1 C -1,7 C 14,5 km/h
21.02.2018 22:00 -1,7 C 83 % 1019,8 hPa 0,0 l/m 4,8 km/h N -4,2 C -1,7 C 13,7 km/h
21.02.2018 23:00 -1,7 C 83 % 1019,4 hPa 0,0 l/m 5,6 km/h N -4,3 C -1,7 C 14,5 km/h
22.02.2018 00:00 -1,6 C 82 % 1019,3 hPa 0,0 l/m 4,6 km/h N -4,3 C -1,6 C 12,5 km/h
22.02.2018 01:00 -1,7 C 82 % 1019,1 hPa 0,0 l/m 3,6 km/h N -4,4 C -1,7 C 9,7 km/h
22.02.2018 02:00 -1,7 C 81 % 1018,6 hPa 0,0 l/m 3,9 km/h N -4,5 C -1,7 C 10,5 km/h
22.02.2018 03:00 -1,7 C 81 % 1018,3 hPa 0,0 l/m 4,1 km/h N -4,5 C -1,7 C 10,9 km/h
22.02.2018 04:00 -1,8 C 82 % 1017,9 hPa 0,0 l/m 4,0 km/h N -4,4 C -1,8 C 10,9 km/h
22.02.2018 05:00 -1,9 C 83 % 1017,7 hPa 0,0 l/m 3,3 km/h N -4,5 C -1,9 C 10,5 km/h
22.02.2018 06:00 -1,9 C 83 % 1017,8 hPa 0,0 l/m 3,2 km/h N -4,4 C -1,9 C 10,1 km/h
22.02.2018 07:00 -1,7 C 82 % 1017,8 hPa 0,0 l/m 2,9 km/h N -4,4 C -1,7 C 8,9 km/h
22.02.2018 08:00 -1,5 C 81 % 1018,0 hPa 0,0 l/m 4,4 km/h N -4,4 C -1,5 C 11,7 km/h
22.02.2018 09:00 -1,2 C 79 % 1018,0 hPa 0,0 l/m 5,6 km/h N -4,4 C -1,2 C 14,5 km/h
22.02.2018 10:00 -0,8 C 77 % 1018,1 hPa 0,0 l/m 3,9 km/h N -4,2 C -0,8 C 13,3 km/h
22.02.2018 11:00 -0,4 C 76 % 1017,9 hPa 0,0 l/m 4,7 km/h N -4,2 C -0,4 C 15,3 km/h
22.02.2018 12:00 0,2 C 74 % 1017,8 hPa 0,0 l/m 5,2 km/h N -3,9 C 0,2 C 15,3 km/h
22.02.2018 13:00 0,7 C 74 % 1017,6 hPa 0,3 l/m 4,9 km/h N -3,5 C 0,7 C 13,3 km/h
22.02.2018 14:00 0,5 C 75 % 1017,4 hPa 0,5 l/m 5,0 km/h N -3,4 C 0,5 C 13,3 km/h
22.02.2018 15:00 0,1 C 80 % 1017,6 hPa 0,0 l/m 2,5 km/h N -3,0 C 0,1 C 8,4 km/h
22.02.2018 16:00 -0,3 C 83 % 1017,9 hPa 0,0 l/m 1,5 km/h N -2,9 C -0,3 C 7,2 km/h
22.02.2018 17:00 -0,6 C 84 % 1018,4 hPa 0,0 l/m 1,8 km/h N -3,0 C -0,6 C 6,8 km/h
22.02.2018 18:00 -1,1 C 84 % 1018,6 hPa 0,0 l/m 3,1 km/h N -3,4 C -1,1 C 11,3 km/h
22.02.2018 19:00 -1,6 C 84 % 1019,0 hPa 0,0 l/m 1,8 km/h N -3,9 C -1,6 C 8,9 km/h
22.02.2018 20:00 -1,9 C 84 % 1019,3 hPa 0,0 l/m 2,6 km/h N -4,2 C -1,9 C 8,4 km/h
22.02.2018 21:00 -2,0 C 84 % 1019,2 hPa 0,0 l/m 2,1 km/h N -4,4 C -2,0 C 8,9 km/h
22.02.2018 22:00 -2,1 C 84 % 1019,1 hPa 0,0 l/m 1,4 km/h N -4,5 C -2,1 C 7,2 km/h
22.02.2018 23:00 -2,3 C 84 % 1019,1 hPa 0,0 l/m 1,9 km/h N -4,6 C -2,3 C 7,2 km/h
23.02.2018 00:00 -2,4 C 84 % 1019,0 hPa 0,0 l/m 1,6 km/h N -4,7 C -2,4 C 7,6 km/h
23.02.2018 01:00 -2,4 C 84 % 1019,0 hPa 0,0 l/m 1,3 km/h N -4,7 C -2,4 C 6,8 km/h
23.02.2018 02:00 -2,5 C 84 % 1018,7 hPa 0,0 l/m 0,9 km/h N -4,8 C -2,5 C 6,8 km/h
23.02.2018 03:00 -2,6 C 84 % 1018,4 hPa 0,0 l/m 0,9 km/h N -4,9 C -2,6 C 6,0 km/h
23.02.2018 04:00 -2,8 C 84 % 1018,4 hPa 0,0 l/m 0,3 km/h N -5,1 C -2,8 C 4,0 km/h
23.02.2018 05:00 -2,8 C 84 % 1018,3 hPa 0,0 l/m 0,8 km/h N -5,1 C -2,8 C 4,8 km/h
23.02.2018 06:00 -2,8 C 84 % 1018,3 hPa 0,0 l/m 1,1 km/h N -5,1 C -2,8 C 5,2 km/h
23.02.2018 07:00 -2,8 C 84 % 1018,8 hPa 0,0 l/m 1,4 km/h N -5,1 C -2,8 C 7,6 km/h
23.02.2018 08:00 -2,7 C 83 % 1019,3 hPa 0,0 l/m 1,7 km/h N -5,2 C -2,7 C 8,9 km/h
23.02.2018 09:00 -2,2 C 82 % 1019,5 hPa 0,0 l/m 2,9 km/h N -4,9 C -2,2 C 10,5 km/h
23.02.2018 10:00 -1,9 C 80 % 1019,9 hPa 0,0 l/m 1,5 km/h N -4,9 C -1,9 C 7,2 km/h
23.02.2018 11:00 -1,6 C 81 % 1020,0 hPa 0,3 l/m 1,8 km/h N -4,5 C -1,6 C 8,8 km/h
23.02.2018 12:00 -1,4 C 83 % 1019,8 hPa 0,0 l/m 2,2 km/h N -3,9 C -1,4 C 9,3 km/h
23.02.2018 13:00 -0,7 C 82 % 1019,5 hPa 0,0 l/m 2,3 km/h N -3,4 C -0,7 C 8,4 km/h
23.02.2018 14:00 -0,2 C 78 % 1019,1 hPa 0,0 l/m 2,0 km/h N -3,6 C -0,2 C 9,7 km/h
23.02.2018 15:00 -0,1 C 76 % 1019,1 hPa 0,0 l/m 1,7 km/h N -3,9 C -0,1 C 9,3 km/h
23.02.2018 16:00 -0,4 C 77 % 1019,4 hPa 0,0 l/m 1,3 km/h N -3,9 C -0,4 C 8,4 km/h
23.02.2018 17:00 -1,1 C 79 % 1019,6 hPa 0,0 l/m 2,4 km/h N -4,2 C -1,1 C 10,9 km/h
23.02.2018 18:00 -1,7 C 82 % 1020,3 hPa 0,0 l/m 0,8 km/h N -4,4 C -1,7 C 7,7 km/h
23.02.2018 19:00 -1,7 C 81 % 1020,6 hPa 0,0 l/m 2,8 km/h N -4,6 C -1,7 C 13,3 km/h
23.02.2018 20:00 -1,8 C 78 % 1020,8 hPa 0,0 l/m 3,3 km/h N -5,2 C -1,8 C 14,1 km/h
23.02.2018 21:00 -2,0 C 77 % 1021,2 hPa 0,0 l/m 3,7 km/h N -5,5 C -2,0 C 14,9 km/h
23.02.2018 22:00 -2,2 C 76 % 1021,3 hPa 0,0 l/m 4,4 km/h N -5,8 C -2,2 C 14,5 km/h
23.02.2018 23:00 -2,4 C 76 % 1021,1 hPa 0,0 l/m 4,5 km/h N -6,1 C -2,4 C 17,3 km/h
24.02.2018 00:00 -2,7 C 74 % 1021,4 hPa 0,0 l/m 4,9 km/h N -6,6 C -2,7 C 16,5 km/h
24.02.2018 01:00 -3,0 C 72 % 1021,4 hPa 0,0 l/m 4,0 km/h N -7,3 C -3,0 C 15,7 km/h
24.02.2018 02:00 -3,3 C 72 % 1021,6 hPa 0,0 l/m 3,8 km/h N -7,6 C -3,3 C 14,1 km/h
24.02.2018 03:00 -3,9 C 71 % 1021,7 hPa 0,0 l/m 3,3 km/h N -8,3 C -3,9 C 13,3 km/h
24.02.2018 04:00 -4,7 C 72 % 1022,1 hPa 0,0 l/m 2,3 km/h N -9,0 C -4,7 C 12,1 km/h
24.02.2018 05:00 -5,5 C 73 % 1022,2 hPa 0,0 l/m 1,1 km/h N -9,5 C -5,5 C 8,4 km/h
24.02.2018 06:00 -5,8 C 75 % 1022,3 hPa 0,0 l/m 1,7 km/h N -9,5 C -5,8 C 8,0 km/h
24.02.2018 07:00 -6,1 C 76 % 1022,7 hPa 0,0 l/m 2,6 km/h N -9,7 C -6,1 C 11,3 km/h
24.02.2018 08:00 -5,5 C 73 % 1022,8 hPa 0,0 l/m 5,1 km/h N -9,5 C -5,5 C 17,7 km/h
24.02.2018 09:00 -4,4 C 68 % 1022,8 hPa 0,0 l/m 7,3 km/h N -9,5 C -5,5 C 21,3 km/h
24.02.2018 10:00 -3,1 C 58 % 1022,5 hPa 0,0 l/m 7,7 km/h N -10,2 C -4,5 C 18,1 km/h
24.02.2018 11:00 -2,0 C 57 % 1022,3 hPa 0,0 l/m 7,3 km/h N -9,5 C -3,0 C 19,7 km/h
24.02.2018 12:00 -1,3 C 54 % 1022,0 hPa 0,0 l/m 7,8 km/h N -9,4 C -2,7 C 19,3 km/h
24.02.2018 13:00 -0,8 C 54 % 1021,7 hPa 0,3 l/m 7,7 km/h N -8,9 C -2,2 C 20,1 km/h
24.02.2018 14:00 -0,6 C 55 % 1021,5 hPa 0,0 l/m 7,0 km/h N -8,4 C -1,2 C 18,9 km/h
24.02.2018 15:00 -0,9 C 56 % 1021,6 hPa 0,0 l/m 6,7 km/h N -8,5 C -1,4 C 18,9 km/h
24.02.2018 16:00 -1,4 C 54 % 1022,0 hPa 0,0 l/m 6,4 km/h N -9,4 C -1,6 C 18,9 km/h
24.02.2018 17:00 -2,3 C 58 % 1023,0 hPa 0,0 l/m 6,9 km/h N -9,3 C -3,1 C 22,1 km/h
24.02.2018 18:00 -3,2 C 61 % 1023,9 hPa 0,0 l/m 5,0 km/h N -9,7 C -3,2 C 18,1 km/h
24.02.2018 19:00 -3,6 C 58 % 1024,4 hPa 0,0 l/m 5,9 km/h N -10,7 C -3,6 C 19,3 km/h
24.02.2018 20:00 -4,3 C 61 % 1025,3 hPa 0,0 l/m 6,2 km/h N -10,7 C -4,9 C 22,9 km/h
24.02.2018 21:00 -5,1 C 62 % 1025,5 hPa 0,0 l/m 5,6 km/h N -11,1 C -5,1 C 21,3 km/h
24.02.2018 22:00 -5,3 C 65 % 1025,8 hPa 0,0 l/m 5,0 km/h N -10,8 C -5,3 C 18,1 km/h
24.02.2018 23:00 -6,0 C 63 % 1026,4 hPa 0,0 l/m 7,4 km/h N -11,8 C -7,1 C 22,1 km/h
25.02.2018 00:00 -6,7 C 63 % 1026,3 hPa 0,0 l/m 5,4 km/h N -12,6 C -6,9 C 16,1 km/h
25.02.2018 01:00 -7,2 C 63 % 1026,3 hPa 0,0 l/m 7,6 km/h N -13,0 C -9,1 C 20,9 km/h
25.02.2018 02:00 -7,6 C 65 % 1026,2 hPa 0,0 l/m 5,9 km/h N -13,2 C -8,3 C 18,5 km/h
25.02.2018 03:00 -8,1 C 66 % 1026,1 hPa 0,0 l/m 5,0 km/h N -13,3 C -8,5 C 15,7 km/h
25.02.2018 04:00 -8,6 C 67 % 1026,3 hPa 0,0 l/m 4,9 km/h N -13,7 C -8,6 C 18,9 km/h
25.02.2018 05:00 -9,3 C 69 % 1026,4 hPa 0,0 l/m 4,1 km/h N -13,8 C -9,3 C 12,5 km/h
25.02.2018 06:00 -9,7 C 71 % 1026,8 hPa 0,0 l/m 2,8 km/h N -14,0 C -9,7 C 9,3 km/h
25.02.2018 07:00 -9,7 C 71 % 1027,4 hPa 0,0 l/m 3,4 km/h N -14,0 C -9,7 C 11,3 km/h
25.02.2018 08:00 -9,3 C 69 % 1027,6 hPa 0,0 l/m 5,9 km/h N -13,9 C -9,5 C 15,3 km/h
25.02.2018 09:00 -8,9 C 68 % 1027,5 hPa 0,0 l/m 6,4 km/h N -13,7 C -9,4 C 18,5 km/h
25.02.2018 10:00 -7,5 C 65 % 1027,4 hPa 0,0 l/m 5,4 km/h N -13,1 C -7,5 C 16,5 km/h
25.02.2018 11:00 -7,1 C 64 % 1027,1 hPa 0,0 l/m 5,4 km/h N -12,8 C -7,2 C 13,7 km/h
25.02.2018 12:00 -6,3 C 62 % 1026,4 hPa 0,0 l/m 6,3 km/h N -12,3 C -6,4 C 17,7 km/h
25.02.2018 13:00 -5,7 C 60 % 1025,8 hPa 0,0 l/m 7,0 km/h N -12,1 C -6,5 C 18,1 km/h
25.02.2018 14:00 -5,6 C 59 % 1025,4 hPa 0,0 l/m 5,8 km/h N -12,4 C -5,6 C 16,1 km/h
25.02.2018 15:00 -5,9 C 56 % 1025,1 hPa 0,0 l/m 6,9 km/h N -13,2 C -6,6 C 18,1 km/h
25.02.2018 16:00 -6,2 C 53 % 1025,1 hPa 0,0 l/m 5,8 km/h N -14,3 C -6,3 C 16,9 km/h
25.02.2018 17:00 -7,0 C 53 % 1025,3 hPa 0,0 l/m 5,2 km/h N -15,0 C -7,0 C 16,9 km/h
25.02.2018 18:00 -7,8 C 56 % 1025,8 hPa 0,0 l/m 5,3 km/h N -15,1 C -7,8 C 17,7 km/h
25.02.2018 19:00 -8,8 C 58 % 1026,2 hPa 0,0 l/m 4,5 km/h N -15,6 C -8,8 C 17,7 km/h
25.02.2018 20:00 -9,6 C 62 % 1026,5 hPa 0,0 l/m 2,9 km/h N -15,6 C -9,6 C 14,1 km/h
25.02.2018 21:00 -10,3 C 64 % 1026,3 hPa 0,0 l/m 2,0 km/h N -15,8 C -10,3 C 8,9 km/h
25.02.2018 22:00 -10,9 C 66 % 1026,0 hPa 0,0 l/m 2,6 km/h N -16,1 C -10,9 C 9,7 km/h
25.02.2018 23:00 -11,3 C 68 % 1025,7 hPa 0,0 l/m 3,8 km/h N -16,0 C -11,3 C 12,1 km/h
Min-Datum _ 25.02.18 24.02.18 20.02.18 - 19.02.18 - 25.02.18 25.02.18 19.02.18
_ Min-Zeit 23:15 13:15 15:45 - 00:00 - 22:30 23:15 00:00
Minimum _ -11,3 C 52 % 1014,3 hPa - 0,0 km/h - -16,2 C -11,3 C 0,0 km/h
Max-Datum _ 19.02.18 19.02.18 25.02.18 20.02.18 25.02.18 - 19.02.18 19.02.18 24.02.18
_ Max-Zeit 14:00 08:00 07:45 13:00 01:45 - 12:00 14:00 11:00
Maximum _ 4,5 C 85 % 1027,6 hPa 1,0 l/m 9,3 km/h
N
- -0,8 C 4,5 C 25,7 km/h
N
Durchschnitt _ -2,5 C 76 % 1020,5 hPa #3,9 l/m 3,0 km/h N -6,2 C -2,6 C 10,2 km/h